Terminal Aerodrome Forecast
Issued by NWS Los Angeles, CA

Home | Current Version | Previous Version | Text Only | Print | Product List | Glossary On
Versions: 1 2 3 4 5 6 7 8 9 10 11 12 13 14 15 16 17 18 19 20 21 22 23 24 25 26 27
713
FTUS46 KLOX 271748
TAFSMX
TAF
KSMX 271748Z 2718/2818 29003KT P6SM OVC012
     FM271900 31007KT P6SM SCT014
     FM272100 30012KT P6SM SKC
     FM280300 31007KT P6SM BKN005
     FM280700 VRB03KT 6SM BR OVC004
     FM281000 VRB03KT 2SM BR OVC003=

USA.gov is the U.S. government's official web portal to all federal, state and local government web resources and services.